N9613C KLEX-KBTL
Flight info
| Callsign | N9613C |
|---|---|
| Flight time | 1h 43m |
| Altitude | 6000 |
| Route | GAMKE/N0111F030 |
| Aircraft | P28A/L-SDFRY/C |
Departure
| Time | 2026-05-05 21:52 |
|---|---|
| Airport | Blue Grass Airport (KLEX) |
Arrival
| Time | 2026-05-05 23:35 |
|---|---|
| Airport | Battle Creek Executive Airport at Kellogg Field (KBTL) |
| Time | Latitude | Longitude | Altitude | Speed | Heading |
|---|---|---|---|---|---|
| 2026-05-05 21:45 | 38.03851 | -84.61229 | 1049 ft | 0 kts | 172° |
| 2026-05-05 21:49 | 38.03842 | -84.61223 | 1049 ft | 4 kts | 126° |
| 2026-05-05 21:49 | 38.03866 | -84.61173 | 1049 ft | 10 kts | 53° |
| 2026-05-05 21:49 | 38.03888 | -84.61122 | 1049 ft | 7 kts | 6° |
| 2026-05-05 21:49 | 38.03922 | -84.61085 | 1049 ft | 10 kts | 84° |
| 2026-05-05 21:50 | 38.03934 | -84.60979 | 1049 ft | 12 kts | 85° |
| 2026-05-05 21:50 | 38.03943 | -84.60854 | 1049 ft | 17 kts | 82° |
| 2026-05-05 21:50 | 38.03956 | -84.60717 | 1049 ft | 13 kts | 86° |
| 2026-05-05 21:50 | 38.03971 | -84.60592 | 1049 ft | 16 kts | 76° |
| 2026-05-05 21:51 | 38.03982 | -84.60480 | 1049 ft | 9 kts | 82° |
| 2026-05-05 21:51 | 38.04034 | -84.60451 | 1046 ft | 13 kts | 351° |
| 2026-05-05 21:51 | 38.04073 | -84.60471 | 1044 ft | 4 kts | 260° |
| 2026-05-05 21:51 | 38.04061 | -84.60516 | 1044 ft | 0 kts | 263° |
| 2026-05-05 21:52 | 38.04020 | -84.60946 | 1052 ft | 82 kts | 263° |
| 2026-05-05 21:52 | 38.03935 | -84.61789 | 1342 ft | 100 kts | 255° |
| 2026-05-05 21:52 | 38.03957 | -84.62604 | 2025 ft | 91 kts | 270° |
| 2026-05-05 21:53 | 38.04349 | -84.63257 | 2633 ft | 101 kts | 314° |
| 2026-05-05 21:53 | 38.05071 | -84.63472 | 3153 ft | 115 kts | 358° |
| 2026-05-05 21:53 | 38.05859 | -84.63286 | 3711 ft | 116 kts | 2° |
| 2026-05-05 21:53 | 38.06636 | -84.63340 | 4255 ft | 103 kts | 320° |
| 2026-05-05 21:54 | 38.07178 | -84.63847 | 4600 ft | 100 kts | 302° |
| 2026-05-05 21:54 | 38.07766 | -84.64345 | 4971 ft | 101 kts | 305° |
| 2026-05-05 21:54 | 38.08343 | -84.64862 | 5317 ft | 101 kts | 305° |
| 2026-05-05 21:54 | 38.08923 | -84.65364 | 5661 ft | 101 kts | 305° |
| 2026-05-05 21:55 | 38.09510 | -84.65870 | 5980 ft | 101 kts | 305° |
| 2026-05-05 21:55 | 38.10149 | -84.66443 | 6051 ft | 128 kts | 310° |
| 2026-05-05 21:55 | 38.10953 | -84.67109 | 6049 ft | 147 kts | 314° |
| 2026-05-05 21:55 | 38.11850 | -84.67864 | 6045 ft | 158 kts | 314° |
| 2026-05-05 21:56 | 38.12775 | -84.68650 | 6039 ft | 164 kts | 314° |
| 2026-05-05 21:56 | 38.13738 | -84.69472 | 6042 ft | 167 kts | 315° |
| 2026-05-05 21:56 | 38.14702 | -84.70296 | 6033 ft | 169 kts | 315° |
| 2026-05-05 21:56 | 38.15683 | -84.71135 | 6031 ft | 170 kts | 315° |
| 2026-05-05 21:57 | 38.16654 | -84.71969 | 6027 ft | 170 kts | 315° |
| 2026-05-05 21:57 | 38.17638 | -84.72811 | 6027 ft | 170 kts | 315° |
| 2026-05-05 21:57 | 38.18621 | -84.73654 | 6025 ft | 169 kts | 315° |
| 2026-05-05 21:57 | 38.19587 | -84.74484 | 6029 ft | 169 kts | 315° |
| 2026-05-05 21:58 | 38.20561 | -84.75322 | 6029 ft | 169 kts | 315° |
| 2026-05-05 21:58 | 38.21534 | -84.76158 | 6025 ft | 170 kts | 315° |
| 2026-05-05 21:58 | 38.22506 | -84.76994 | 6028 ft | 170 kts | 315° |
| 2026-05-05 21:58 | 38.23486 | -84.77835 | 6028 ft | 169 kts | 315° |
| 2026-05-05 21:59 | 38.24455 | -84.78669 | 6028 ft | 168 kts | 315° |
| 2026-05-05 21:59 | 38.25435 | -84.79514 | 6022 ft | 169 kts | 316° |
| 2026-05-05 21:59 | 38.26401 | -84.80343 | 6030 ft | 169 kts | 316° |
| 2026-05-05 21:59 | 38.27381 | -84.81190 | 6025 ft | 170 kts | 316° |
| 2026-05-05 22:00 | 38.28363 | -84.82033 | 6023 ft | 169 kts | 316° |
| 2026-05-05 22:00 | 38.29326 | -84.82865 | 6026 ft | 168 kts | 316° |
| 2026-05-05 22:00 | 38.30296 | -84.83698 | 6023 ft | 168 kts | 315° |
| 2026-05-05 22:00 | 38.31258 | -84.84526 | 6009 ft | 166 kts | 315° |
| 2026-05-05 22:01 | 38.32210 | -84.85356 | 6018 ft | 165 kts | 315° |
| 2026-05-05 22:01 | 38.33162 | -84.86175 | 6020 ft | 167 kts | 315° |
| 2026-05-05 22:01 | 38.34142 | -84.87017 | 6019 ft | 169 kts | 315° |
| 2026-05-05 22:01 | 38.35105 | -84.87847 | 5994 ft | 168 kts | 315° |
| 2026-05-05 22:02 | 38.35746 | -84.88400 | 5998 ft | 168 kts | 315° |
| 2026-05-05 22:02 | 38.37025 | -84.89506 | 5996 ft | 166 kts | 315° |
| 2026-05-05 22:02 | 38.37979 | -84.90325 | 5995 ft | 163 kts | 314° |
| 2026-05-05 22:02 | 38.38913 | -84.91140 | 5993 ft | 164 kts | 313° |
| 2026-05-05 22:03 | 38.39553 | -84.91696 | 5995 ft | 165 kts | 314° |
| 2026-05-05 22:03 | 38.40505 | -84.92519 | 5998 ft | 167 kts | 314° |
| 2026-05-05 22:03 | 38.41470 | -84.93349 | 6000 ft | 168 kts | 314° |
| 2026-05-05 22:03 | 38.42763 | -84.94472 | 6006 ft | 169 kts | 315° |
| 2026-05-05 22:04 | 38.43410 | -84.95032 | 6002 ft | 169 kts | 315° |
| 2026-05-05 22:04 | 38.44386 | -84.95873 | 5998 ft | 168 kts | 315° |
| 2026-05-05 22:04 | 38.45348 | -84.96707 | 6000 ft | 168 kts | 314° |
| 2026-05-05 22:04 | 38.46312 | -84.97544 | 5995 ft | 167 kts | 314° |
| 2026-05-05 22:05 | 38.47270 | -84.98374 | 6000 ft | 166 kts | 314° |
| 2026-05-05 22:05 | 38.48226 | -84.99203 | 5996 ft | 168 kts | 314° |
| 2026-05-05 22:05 | 38.49198 | -85.00051 | 6011 ft | 169 kts | 314° |
| 2026-05-05 22:05 | 38.50185 | -85.00908 | 6000 ft | 172 kts | 315° |
| 2026-05-05 22:06 | 38.51176 | -85.01759 | 5998 ft | 171 kts | 314° |
| 2026-05-05 22:06 | 38.52154 | -85.02609 | 6004 ft | 170 kts | 314° |
| 2026-05-05 22:06 | 38.53129 | -85.03461 | 5995 ft | 170 kts | 314° |
| 2026-05-05 22:06 | 38.54107 | -85.04309 | 5995 ft | 169 kts | 314° |
| 2026-05-05 22:07 | 38.55082 | -85.05155 | 5995 ft | 169 kts | 314° |
| 2026-05-05 22:07 | 38.56037 | -85.05984 | 5977 ft | 165 kts | 315° |
| 2026-05-05 22:07 | 38.56967 | -85.06793 | 5995 ft | 162 kts | 313° |
| 2026-05-05 22:07 | 38.57902 | -85.07611 | 5992 ft | 164 kts | 314° |
| 2026-05-05 22:08 | 38.58860 | -85.08445 | 5995 ft | 165 kts | 314° |
| 2026-05-05 22:08 | 38.59801 | -85.09262 | 5996 ft | 166 kts | 315° |
| 2026-05-05 22:08 | 38.60737 | -85.10077 | 5998 ft | 166 kts | 315° |
| 2026-05-05 22:08 | 38.61689 | -85.10903 | 5999 ft | 166 kts | 314° |
| 2026-05-05 22:09 | 38.62645 | -85.11741 | 6004 ft | 167 kts | 314° |
| 2026-05-05 22:09 | 38.63604 | -85.12575 | 6000 ft | 166 kts | 314° |
| 2026-05-05 22:09 | 38.64553 | -85.13401 | 6001 ft | 164 kts | 313° |
| 2026-05-05 22:09 | 38.65494 | -85.14222 | 6008 ft | 164 kts | 313° |
| 2026-05-05 22:10 | 38.66434 | -85.15043 | 5999 ft | 162 kts | 313° |
| 2026-05-05 22:10 | 38.67360 | -85.15856 | 6002 ft | 161 kts | 313° |
| 2026-05-05 22:10 | 38.68285 | -85.16658 | 6008 ft | 161 kts | 313° |
| 2026-05-05 22:10 | 38.69214 | -85.17473 | 6012 ft | 163 kts | 313° |
| 2026-05-05 22:11 | 38.70158 | -85.18301 | 6005 ft | 166 kts | 314° |
| 2026-05-05 22:11 | 38.71108 | -85.19127 | 6008 ft | 165 kts | 314° |
| 2026-05-05 22:11 | 38.72051 | -85.19951 | 6008 ft | 164 kts | 314° |
| 2026-05-05 22:11 | 38.72994 | -85.20773 | 6011 ft | 164 kts | 313° |
| 2026-05-05 22:12 | 38.73932 | -85.21596 | 6010 ft | 163 kts | 313° |
| 2026-05-05 22:12 | 38.74864 | -85.22414 | 6010 ft | 162 kts | 312° |
| 2026-05-05 22:12 | 38.75786 | -85.23223 | 6007 ft | 164 kts | 313° |
| 2026-05-05 22:12 | 38.76739 | -85.24029 | 6011 ft | 167 kts | 316° |
| 2026-05-05 22:13 | 38.77889 | -85.24509 | 5999 ft | 182 kts | 342° |
| 2026-05-05 22:13 | 38.79175 | -85.24489 | 5999 ft | 185 kts | 357° |
| 2026-05-05 22:13 | 38.80454 | -85.24357 | 5995 ft | 185 kts | 357° |
| 2026-05-05 22:13 | 38.81733 | -85.24302 | 6000 ft | 183 kts | 352° |
| 2026-05-05 22:14 | 38.83010 | -85.24314 | 6001 ft | 184 kts | 351° |
| 2026-05-05 22:14 | 38.84292 | -85.24324 | 5999 ft | 185 kts | 352° |
| 2026-05-05 22:14 | 38.85578 | -85.24326 | 5992 ft | 184 kts | 352° |
| 2026-05-05 22:14 | 38.86856 | -85.24328 | 6002 ft | 184 kts | 352° |
| 2026-05-05 22:15 | 38.88139 | -85.24330 | 6000 ft | 184 kts | 352° |
| 2026-05-05 22:15 | 38.89423 | -85.24333 | 5997 ft | 184 kts | 352° |
| 2026-05-05 22:15 | 38.90702 | -85.24334 | 5993 ft | 183 kts | 352° |
| 2026-05-05 22:15 | 38.91969 | -85.24336 | 5992 ft | 182 kts | 352° |
| 2026-05-05 22:16 | 38.93221 | -85.24339 | 5993 ft | 181 kts | 351° |
| 2026-05-05 22:16 | 38.94485 | -85.24342 | 5989 ft | 182 kts | 351° |
| 2026-05-05 22:16 | 38.95759 | -85.24345 | 5990 ft | 182 kts | 352° |
| 2026-05-05 22:16 | 38.97024 | -85.24346 | 5987 ft | 183 kts | 351° |
| 2026-05-05 22:17 | 38.98304 | -85.24349 | 5992 ft | 183 kts | 351° |
| 2026-05-05 22:17 | 38.99582 | -85.24350 | 5989 ft | 183 kts | 351° |
| 2026-05-05 22:17 | 39.00846 | -85.24355 | 5988 ft | 183 kts | 352° |
| 2026-05-05 22:17 | 39.02107 | -85.24355 | 5985 ft | 182 kts | 351° |
| 2026-05-05 22:18 | 39.03387 | -85.24358 | 5981 ft | 183 kts | 351° |
| 2026-05-05 22:18 | 39.04662 | -85.24361 | 5982 ft | 182 kts | 351° |
| 2026-05-05 22:18 | 39.05917 | -85.24364 | 5987 ft | 182 kts | 351° |
| 2026-05-05 22:18 | 39.07199 | -85.24367 | 5988 ft | 183 kts | 351° |
| 2026-05-05 22:19 | 39.08465 | -85.24369 | 5982 ft | 184 kts | 352° |
| 2026-05-05 22:19 | 39.09747 | -85.24370 | 5986 ft | 183 kts | 351° |
| 2026-05-05 22:19 | 39.11004 | -85.24373 | 5986 ft | 183 kts | 351° |
| 2026-05-05 22:19 | 39.12283 | -85.24374 | 5984 ft | 181 kts | 351° |
| 2026-05-05 22:20 | 39.13530 | -85.24377 | 5982 ft | 179 kts | 351° |
| 2026-05-05 22:20 | 39.14787 | -85.24379 | 5985 ft | 181 kts | 351° |
| 2026-05-05 22:20 | 39.16059 | -85.24386 | 5990 ft | 183 kts | 351° |
| 2026-05-05 22:20 | 39.17332 | -85.24388 | 5987 ft | 182 kts | 352° |
| 2026-05-05 22:21 | 39.18588 | -85.24387 | 5992 ft | 181 kts | 352° |
| 2026-05-05 22:21 | 39.19866 | -85.24387 | 5996 ft | 183 kts | 351° |
| 2026-05-05 22:21 | 39.21138 | -85.24392 | 5996 ft | 184 kts | 351° |
| 2026-05-05 22:21 | 39.22421 | -85.24394 | 5987 ft | 182 kts | 352° |
| 2026-05-05 22:22 | 39.23667 | -85.24397 | 5975 ft | 179 kts | 352° |
| 2026-05-05 22:22 | 39.24913 | -85.24398 | 5979 ft | 179 kts | 351° |
| 2026-05-05 22:22 | 39.26166 | -85.24399 | 5980 ft | 181 kts | 350° |
| 2026-05-05 22:22 | 39.27419 | -85.24404 | 5990 ft | 182 kts | 352° |
| 2026-05-05 22:23 | 39.28694 | -85.24405 | 5988 ft | 181 kts | 351° |
| 2026-05-05 22:23 | 39.29935 | -85.24407 | 5988 ft | 180 kts | 351° |
| 2026-05-05 22:23 | 39.31196 | -85.24408 | 5984 ft | 180 kts | 350° |
| 2026-05-05 22:23 | 39.32440 | -85.24413 | 5984 ft | 179 kts | 351° |
| 2026-05-05 22:24 | 39.33700 | -85.24417 | 5984 ft | 181 kts | 351° |
| 2026-05-05 22:24 | 39.34967 | -85.24419 | 5992 ft | 181 kts | 352° |
| 2026-05-05 22:24 | 39.36215 | -85.24418 | 5989 ft | 180 kts | 350° |
| 2026-05-05 22:24 | 39.37459 | -85.24422 | 5978 ft | 177 kts | 351° |
| 2026-05-05 22:25 | 39.38677 | -85.24422 | 5977 ft | 175 kts | 349° |
| 2026-05-05 22:25 | 39.39896 | -85.24427 | 5991 ft | 173 kts | 349° |
| 2026-05-05 22:25 | 39.41107 | -85.24433 | 5990 ft | 175 kts | 349° |
| 2026-05-05 22:25 | 39.42334 | -85.24434 | 5994 ft | 177 kts | 350° |
| 2026-05-05 22:26 | 39.43565 | -85.24435 | 5992 ft | 178 kts | 350° |
| 2026-05-05 22:26 | 39.44798 | -85.24433 | 5990 ft | 175 kts | 349° |
| 2026-05-05 22:26 | 39.46022 | -85.24440 | 5988 ft | 175 kts | 350° |
| 2026-05-05 22:26 | 39.47250 | -85.24445 | 5989 ft | 176 kts | 350° |
| 2026-05-05 22:27 | 39.48488 | -85.24444 | 5987 ft | 178 kts | 350° |
| 2026-05-05 22:27 | 39.49709 | -85.24444 | 5979 ft | 176 kts | 349° |
| 2026-05-05 22:27 | 39.50924 | -85.24447 | 5984 ft | 174 kts | 349° |
| 2026-05-05 22:27 | 39.52136 | -85.24449 | 5988 ft | 173 kts | 349° |
| 2026-05-05 22:28 | 39.53339 | -85.24456 | 5989 ft | 176 kts | 349° |
| 2026-05-05 22:28 | 39.54577 | -85.24457 | 5993 ft | 177 kts | 348° |
| 2026-05-05 22:28 | 39.55802 | -85.24457 | 5987 ft | 177 kts | 348° |
| 2026-05-05 22:28 | 39.57026 | -85.24453 | 5985 ft | 174 kts | 348° |
| 2026-05-05 22:29 | 39.58254 | -85.24466 | 5981 ft | 176 kts | 349° |
| 2026-05-05 22:29 | 39.59482 | -85.24467 | 5990 ft | 178 kts | 349° |
| 2026-05-05 22:29 | 39.60736 | -85.24469 | 5986 ft | 180 kts | 349° |
| 2026-05-05 22:29 | 39.61970 | -85.24468 | 5998 ft | 177 kts | 349° |
| 2026-05-05 22:30 | 39.63211 | -85.24472 | 5999 ft | 178 kts | 349° |
| 2026-05-05 22:30 | 39.64440 | -85.24476 | 5999 ft | 177 kts | 349° |
| 2026-05-05 22:30 | 39.65688 | -85.24481 | 6001 ft | 180 kts | 350° |
| 2026-05-05 22:30 | 39.66940 | -85.24482 | 6003 ft | 182 kts | 350° |
| 2026-05-05 22:31 | 39.68212 | -85.24480 | 6004 ft | 181 kts | 349° |
| 2026-05-05 22:31 | 39.69449 | -85.24482 | 6006 ft | 180 kts | 350° |
| 2026-05-05 22:31 | 39.70710 | -85.24484 | 6004 ft | 179 kts | 351° |
| 2026-05-05 22:31 | 39.71952 | -85.24488 | 6008 ft | 181 kts | 351° |
| 2026-05-05 22:32 | 39.73226 | -85.24488 | 6008 ft | 180 kts | 349° |
| 2026-05-05 22:32 | 39.74464 | -85.24489 | 6005 ft | 179 kts | 349° |
| 2026-05-05 22:32 | 39.75708 | -85.24492 | 6004 ft | 177 kts | 349° |
| 2026-05-05 22:32 | 39.76943 | -85.24498 | 6000 ft | 175 kts | 350° |
| 2026-05-05 22:33 | 39.78148 | -85.24501 | 5997 ft | 174 kts | 350° |
| 2026-05-05 22:33 | 39.79367 | -85.24504 | 5995 ft | 174 kts | 350° |
| 2026-05-05 22:33 | 39.80580 | -85.24504 | 5998 ft | 173 kts | 349° |
| 2026-05-05 22:33 | 39.81766 | -85.24507 | 6001 ft | 172 kts | 349° |
| 2026-05-05 22:34 | 39.82971 | -85.24513 | 5999 ft | 174 kts | 351° |
| 2026-05-05 22:34 | 39.84193 | -85.24514 | 6003 ft | 175 kts | 351° |
| 2026-05-05 22:34 | 39.85408 | -85.24516 | 6008 ft | 176 kts | 351° |
| 2026-05-05 22:34 | 39.86635 | -85.24515 | 6008 ft | 176 kts | 351° |
| 2026-05-05 22:35 | 39.87861 | -85.24517 | 6009 ft | 174 kts | 350° |
| 2026-05-05 22:35 | 39.89076 | -85.24523 | 6011 ft | 175 kts | 351° |
| 2026-05-05 22:35 | 39.90286 | -85.24526 | 6011 ft | 176 kts | 351° |
| 2026-05-05 22:35 | 39.91525 | -85.24527 | 6010 ft | 177 kts | 351° |
| 2026-05-05 22:36 | 39.92737 | -85.24528 | 6008 ft | 174 kts | 352° |
| 2026-05-05 22:36 | 39.93949 | -85.24530 | 6009 ft | 173 kts | 351° |
| 2026-05-05 22:36 | 39.95158 | -85.24532 | 6012 ft | 173 kts | 351° |
| 2026-05-05 22:36 | 39.96359 | -85.24535 | 6012 ft | 175 kts | 351° |
| 2026-05-05 22:37 | 39.97586 | -85.24540 | 6014 ft | 176 kts | 352° |
| 2026-05-05 22:37 | 39.98809 | -85.24543 | 6016 ft | 177 kts | 352° |
| 2026-05-05 22:37 | 40.00048 | -85.24542 | 6013 ft | 177 kts | 352° |
| 2026-05-05 22:37 | 40.01265 | -85.24542 | 6009 ft | 176 kts | 352° |
| 2026-05-05 22:38 | 40.02494 | -85.24545 | 6013 ft | 176 kts | 351° |
| 2026-05-05 22:38 | 40.03727 | -85.24551 | 6008 ft | 177 kts | 352° |
| 2026-05-05 22:38 | 40.04967 | -85.24553 | 6013 ft | 178 kts | 352° |
| 2026-05-05 22:38 | 40.06199 | -85.24552 | 6015 ft | 178 kts | 352° |
| 2026-05-05 22:39 | 40.07439 | -85.24555 | 6014 ft | 177 kts | 351° |
| 2026-05-05 22:39 | 40.08655 | -85.24558 | 6024 ft | 176 kts | 351° |
| 2026-05-05 22:39 | 40.09890 | -85.24562 | 6027 ft | 178 kts | 351° |
| 2026-05-05 22:39 | 40.11120 | -85.24562 | 6031 ft | 179 kts | 352° |
| 2026-05-05 22:40 | 40.12370 | -85.24566 | 6024 ft | 177 kts | 352° |
| 2026-05-05 22:40 | 40.13599 | -85.24568 | 6025 ft | 176 kts | 351° |
| 2026-05-05 22:40 | 40.14810 | -85.24569 | 6030 ft | 176 kts | 352° |
| 2026-05-05 22:40 | 40.16038 | -85.24572 | 6028 ft | 176 kts | 351° |
| 2026-05-05 22:41 | 40.17264 | -85.24576 | 6026 ft | 175 kts | 351° |
| 2026-05-05 22:41 | 40.18485 | -85.24578 | 6022 ft | 175 kts | 351° |
| 2026-05-05 22:41 | 40.19694 | -85.24582 | 6023 ft | 176 kts | 351° |
| 2026-05-05 22:41 | 40.20920 | -85.24584 | 6024 ft | 176 kts | 351° |
| 2026-05-05 22:42 | 40.22150 | -85.24586 | 6025 ft | 176 kts | 351° |
| 2026-05-05 22:42 | 40.23362 | -85.24586 | 6028 ft | 175 kts | 350° |
| 2026-05-05 22:42 | 40.24585 | -85.24589 | 6028 ft | 175 kts | 351° |
| 2026-05-05 22:42 | 40.25790 | -85.24592 | 6031 ft | 175 kts | 350° |
| 2026-05-05 22:43 | 40.27016 | -85.24596 | 6025 ft | 176 kts | 350° |
| 2026-05-05 22:43 | 40.28248 | -85.24597 | 6025 ft | 176 kts | 351° |
| 2026-05-05 22:43 | 40.29465 | -85.24600 | 6025 ft | 175 kts | 351° |
| 2026-05-05 22:43 | 40.30690 | -85.24603 | 6029 ft | 175 kts | 351° |
| 2026-05-05 22:44 | 40.31910 | -85.24604 | 6032 ft | 175 kts | 351° |
| 2026-05-05 22:44 | 40.33132 | -85.24604 | 6026 ft | 174 kts | 350° |
| 2026-05-05 22:44 | 40.34329 | -85.24608 | 6028 ft | 174 kts | 350° |
| 2026-05-05 22:44 | 40.35535 | -85.24613 | 6029 ft | 175 kts | 350° |
| 2026-05-05 22:45 | 40.36756 | -85.24615 | 6031 ft | 175 kts | 350° |
| 2026-05-05 22:45 | 40.37983 | -85.24616 | 6030 ft | 174 kts | 350° |
| 2026-05-05 22:45 | 40.39185 | -85.24618 | 6032 ft | 174 kts | 349° |
| 2026-05-05 22:45 | 40.40407 | -85.24623 | 6032 ft | 176 kts | 350° |
| 2026-05-05 22:46 | 40.41624 | -85.24625 | 6042 ft | 176 kts | 349° |
| 2026-05-05 22:46 | 40.42850 | -85.24624 | 6040 ft | 174 kts | 349° |
| 2026-05-05 22:46 | 40.44061 | -85.24629 | 6041 ft | 175 kts | 349° |
| 2026-05-05 22:46 | 40.45281 | -85.24631 | 6038 ft | 174 kts | 349° |
| 2026-05-05 22:47 | 40.46485 | -85.24634 | 6040 ft | 174 kts | 350° |
| 2026-05-05 22:47 | 40.47699 | -85.24635 | 6042 ft | 173 kts | 350° |
| 2026-05-05 22:47 | 40.48503 | -85.24635 | 6038 ft | 174 kts | 349° |
| 2026-05-05 22:47 | 40.50118 | -85.24642 | 6041 ft | 175 kts | 349° |
| 2026-05-05 22:48 | 40.50929 | -85.24642 | 6038 ft | 175 kts | 349° |
| 2026-05-05 22:48 | 40.52149 | -85.24640 | 6038 ft | 174 kts | 349° |
| 2026-05-05 22:48 | 40.53359 | -85.24644 | 6040 ft | 173 kts | 349° |
| 2026-05-05 22:48 | 40.54549 | -85.24649 | 6041 ft | 173 kts | 349° |
| 2026-05-05 22:49 | 40.55760 | -85.24653 | 6039 ft | 174 kts | 349° |
| 2026-05-05 22:49 | 40.56977 | -85.24654 | 6040 ft | 173 kts | 349° |
| 2026-05-05 22:49 | 40.58170 | -85.24654 | 6040 ft | 172 kts | 349° |
| 2026-05-05 22:49 | 40.59371 | -85.24658 | 6044 ft | 172 kts | 349° |
| 2026-05-05 22:50 | 40.60558 | -85.24662 | 6044 ft | 173 kts | 349° |
| 2026-05-05 22:50 | 40.61774 | -85.24664 | 6045 ft | 174 kts | 349° |
| 2026-05-05 22:50 | 40.62971 | -85.24664 | 6045 ft | 172 kts | 349° |
| 2026-05-05 22:50 | 40.64180 | -85.24667 | 6044 ft | 172 kts | 348° |
| 2026-05-05 22:51 | 40.65366 | -85.24670 | 6043 ft | 171 kts | 349° |
| 2026-05-05 22:51 | 40.66568 | -85.24671 | 6042 ft | 171 kts | 348° |
| 2026-05-05 22:51 | 40.67747 | -85.24673 | 6041 ft | 171 kts | 348° |
| 2026-05-05 22:51 | 40.68935 | -85.24678 | 6042 ft | 171 kts | 347° |
| 2026-05-05 22:52 | 40.70122 | -85.24682 | 6040 ft | 172 kts | 348° |
| 2026-05-05 22:52 | 40.71324 | -85.24683 | 6041 ft | 171 kts | 349° |
| 2026-05-05 22:52 | 40.72511 | -85.24679 | 6044 ft | 169 kts | 348° |
| 2026-05-05 22:52 | 40.73672 | -85.24684 | 6042 ft | 169 kts | 348° |
| 2026-05-05 22:53 | 40.74850 | -85.24687 | 6041 ft | 167 kts | 348° |
| 2026-05-05 22:53 | 40.75998 | -85.24687 | 6039 ft | 166 kts | 347° |
| 2026-05-05 22:53 | 40.77168 | -85.24695 | 6039 ft | 166 kts | 348° |
| 2026-05-05 22:53 | 40.78322 | -85.24696 | 6045 ft | 165 kts | 348° |
| 2026-05-05 22:54 | 40.79467 | -85.24698 | 6040 ft | 166 kts | 347° |
| 2026-05-05 22:54 | 40.80619 | -85.24699 | 6040 ft | 165 kts | 347° |
| 2026-05-05 22:54 | 40.81780 | -85.24705 | 6042 ft | 166 kts | 352° |
| 2026-05-05 22:54 | 40.82918 | -85.24709 | 6041 ft | 163 kts | 353° |
| 2026-05-05 22:55 | 40.84037 | -85.24704 | 6043 ft | 162 kts | 352° |
| 2026-05-05 22:55 | 40.85169 | -85.24708 | 6040 ft | 162 kts | 353° |
| 2026-05-05 22:55 | 40.86300 | -85.24710 | 6041 ft | 161 kts | 352° |
| 2026-05-05 22:55 | 40.87408 | -85.24713 | 6043 ft | 161 kts | 352° |
| 2026-05-05 22:56 | 40.88534 | -85.24716 | 6042 ft | 161 kts | 353° |
| 2026-05-05 22:56 | 40.89644 | -85.24718 | 6041 ft | 160 kts | 352° |
| 2026-05-05 22:56 | 40.90768 | -85.24721 | 6043 ft | 161 kts | 353° |
| 2026-05-05 22:56 | 40.91873 | -85.24721 | 6041 ft | 160 kts | 352° |
| 2026-05-05 22:57 | 40.92994 | -85.24724 | 6043 ft | 160 kts | 352° |
| 2026-05-05 22:57 | 40.94119 | -85.24727 | 6041 ft | 161 kts | 352° |
| 2026-05-05 22:57 | 40.95229 | -85.24729 | 6041 ft | 161 kts | 352° |
| 2026-05-05 22:57 | 40.96350 | -85.24731 | 6041 ft | 160 kts | 352° |
| 2026-05-05 22:58 | 40.97456 | -85.24733 | 6042 ft | 160 kts | 352° |
| 2026-05-05 22:58 | 40.98577 | -85.24736 | 6039 ft | 160 kts | 352° |
| 2026-05-05 22:58 | 40.99699 | -85.24738 | 6040 ft | 160 kts | 352° |
| 2026-05-05 22:58 | 41.00818 | -85.24740 | 6039 ft | 160 kts | 352° |
| 2026-05-05 22:59 | 41.01925 | -85.24742 | 6041 ft | 160 kts | 352° |
| 2026-05-05 22:59 | 41.03041 | -85.24744 | 6042 ft | 160 kts | 352° |
| 2026-05-05 22:59 | 41.04145 | -85.24747 | 6041 ft | 160 kts | 352° |
| 2026-05-05 22:59 | 41.05254 | -85.24749 | 6041 ft | 159 kts | 352° |
| 2026-05-05 23:00 | 41.07471 | -85.24753 | 6039 ft | 159 kts | 352° |
| 2026-05-05 23:00 | 41.08580 | -85.24755 | 6038 ft | 159 kts | 352° |
| 2026-05-05 23:00 | 41.09688 | -85.24758 | 6039 ft | 159 kts | 352° |
| 2026-05-05 23:01 | 41.10791 | -85.24760 | 6042 ft | 159 kts | 352° |
| 2026-05-05 23:01 | 41.11893 | -85.24761 | 6038 ft | 159 kts | 351° |
| 2026-05-05 23:01 | 41.12993 | -85.24734 | 6042 ft | 159 kts | 353° |
| 2026-05-05 23:01 | 41.14103 | -85.24688 | 6040 ft | 159 kts | 353° |
| 2026-05-05 23:02 | 41.15211 | -85.24643 | 6037 ft | 159 kts | 353° |
| 2026-05-05 23:02 | 41.16317 | -85.24599 | 6037 ft | 159 kts | 353° |
| 2026-05-05 23:02 | 41.17426 | -85.24556 | 6040 ft | 159 kts | 353° |
| 2026-05-05 23:02 | 41.18529 | -85.24512 | 6043 ft | 158 kts | 353° |
| 2026-05-05 23:03 | 41.19629 | -85.24469 | 6036 ft | 158 kts | 353° |
| 2026-05-05 23:03 | 41.20733 | -85.24426 | 6038 ft | 159 kts | 353° |
| 2026-05-05 23:03 | 41.21821 | -85.24384 | 6042 ft | 158 kts | 353° |
| 2026-05-05 23:03 | 41.22922 | -85.24341 | 6037 ft | 158 kts | 353° |
| 2026-05-05 23:04 | 41.24040 | -85.24297 | 6034 ft | 158 kts | 353° |
| 2026-05-05 23:04 | 41.25140 | -85.24253 | 6027 ft | 158 kts | 353° |
| 2026-05-05 23:04 | 41.26223 | -85.24210 | 6037 ft | 158 kts | 352° |
| 2026-05-05 23:04 | 41.27320 | -85.24167 | 6006 ft | 157 kts | 352° |
| 2026-05-05 23:05 | 41.28412 | -85.24125 | 6012 ft | 158 kts | 352° |
| 2026-05-05 23:05 | 41.29515 | -85.24083 | 6012 ft | 159 kts | 353° |
| 2026-05-05 23:05 | 41.30628 | -85.24038 | 6014 ft | 160 kts | 353° |
| 2026-05-05 23:05 | 41.31738 | -85.23993 | 6014 ft | 160 kts | 353° |
| 2026-05-05 23:06 | 41.32843 | -85.23948 | 6016 ft | 158 kts | 352° |
| 2026-05-05 23:06 | 41.33939 | -85.23908 | 6008 ft | 157 kts | 352° |
| 2026-05-05 23:06 | 41.35038 | -85.23866 | 6015 ft | 159 kts | 352° |
| 2026-05-05 23:06 | 41.36143 | -85.23823 | 6009 ft | 161 kts | 353° |
| 2026-05-05 23:07 | 41.37265 | -85.23776 | 6015 ft | 161 kts | 353° |
| 2026-05-05 23:07 | 41.38382 | -85.23731 | 6012 ft | 160 kts | 353° |
| 2026-05-05 23:07 | 41.39488 | -85.23688 | 6010 ft | 159 kts | 353° |
| 2026-05-05 23:07 | 41.40602 | -85.23644 | 6015 ft | 159 kts | 353° |
| 2026-05-05 23:08 | 41.41711 | -85.23601 | 6017 ft | 159 kts | 353° |
| 2026-05-05 23:08 | 41.42819 | -85.23557 | 6014 ft | 159 kts | 353° |
| 2026-05-05 23:08 | 41.43935 | -85.23513 | 6023 ft | 161 kts | 353° |
| 2026-05-05 23:08 | 41.45061 | -85.23469 | 6014 ft | 163 kts | 353° |
| 2026-05-05 23:09 | 41.46196 | -85.23424 | 6015 ft | 163 kts | 353° |
| 2026-05-05 23:09 | 41.47283 | -85.23367 | 6009 ft | 141 kts | 354° |
| 2026-05-05 23:09 | 41.48307 | -85.23340 | 6009 ft | 152 kts | 351° |
| 2026-05-05 23:09 | 41.49385 | -85.23307 | 6010 ft | 157 kts | 353° |
| 2026-05-05 23:10 | 41.50467 | -85.23260 | 6008 ft | 157 kts | 353° |
| 2026-05-05 23:10 | 41.51557 | -85.23213 | 6008 ft | 156 kts | 353° |
| 2026-05-05 23:10 | 41.52646 | -85.23170 | 6014 ft | 157 kts | 353° |
| 2026-05-05 23:10 | 41.53737 | -85.23127 | 6010 ft | 157 kts | 353° |
| 2026-05-05 23:11 | 41.54823 | -85.23084 | 6009 ft | 156 kts | 353° |
| 2026-05-05 23:11 | 41.55904 | -85.23041 | 6011 ft | 155 kts | 353° |
| 2026-05-05 23:11 | 41.56985 | -85.22999 | 6011 ft | 155 kts | 353° |
| 2026-05-05 23:11 | 41.58064 | -85.22956 | 6010 ft | 155 kts | 353° |
| 2026-05-05 23:12 | 41.59144 | -85.22913 | 6014 ft | 155 kts | 353° |
| 2026-05-05 23:12 | 41.60222 | -85.22870 | 6016 ft | 155 kts | 353° |
| 2026-05-05 23:12 | 41.61304 | -85.22828 | 6015 ft | 156 kts | 353° |
| 2026-05-05 23:12 | 41.62387 | -85.22783 | 6015 ft | 156 kts | 353° |
| 2026-05-05 23:13 | 41.63472 | -85.22740 | 6016 ft | 155 kts | 353° |
| 2026-05-05 23:13 | 41.64551 | -85.22698 | 6018 ft | 155 kts | 353° |
| 2026-05-05 23:13 | 41.65632 | -85.22655 | 6016 ft | 155 kts | 353° |
| 2026-05-05 23:13 | 41.66698 | -85.22613 | 6019 ft | 155 kts | 353° |
| 2026-05-05 23:14 | 41.67776 | -85.22570 | 6020 ft | 155 kts | 353° |
| 2026-05-05 23:14 | 41.68855 | -85.22528 | 6029 ft | 155 kts | 353° |
| 2026-05-05 23:14 | 41.69933 | -85.22484 | 6023 ft | 155 kts | 353° |
| 2026-05-05 23:14 | 41.71009 | -85.22442 | 6021 ft | 154 kts | 353° |
| 2026-05-05 23:15 | 41.72082 | -85.22399 | 6029 ft | 154 kts | 353° |
| 2026-05-05 23:15 | 41.73157 | -85.22356 | 6021 ft | 155 kts | 354° |
| 2026-05-05 23:15 | 41.74232 | -85.22313 | 6023 ft | 154 kts | 353° |
| 2026-05-05 23:15 | 41.75305 | -85.22270 | 6023 ft | 154 kts | 353° |
| 2026-05-05 23:16 | 41.76379 | -85.22228 | 6024 ft | 155 kts | 353° |
| 2026-05-05 23:16 | 41.77457 | -85.22185 | 6027 ft | 155 kts | 353° |
| 2026-05-05 23:16 | 41.78536 | -85.22142 | 6032 ft | 155 kts | 353° |
| 2026-05-05 23:16 | 41.79616 | -85.22098 | 6030 ft | 155 kts | 353° |
| 2026-05-05 23:17 | 41.80688 | -85.22055 | 6030 ft | 154 kts | 353° |
| 2026-05-05 23:17 | 41.81744 | -85.22013 | 6031 ft | 154 kts | 353° |
| 2026-05-05 23:17 | 41.82812 | -85.21971 | 6030 ft | 153 kts | 353° |
| 2026-05-05 23:17 | 41.83876 | -85.21929 | 6024 ft | 153 kts | 354° |
| 2026-05-05 23:18 | 41.84940 | -85.21886 | 5986 ft | 154 kts | 354° |
| 2026-05-05 23:18 | 41.85977 | -85.21837 | 5852 ft | 145 kts | 354° |
| 2026-05-05 23:18 | 41.86975 | -85.21797 | 5720 ft | 142 kts | 354° |
| 2026-05-05 23:18 | 41.87956 | -85.21761 | 5586 ft | 140 kts | 354° |
| 2026-05-05 23:19 | 41.88928 | -85.21723 | 5455 ft | 139 kts | 354° |
| 2026-05-05 23:19 | 41.89888 | -85.21685 | 5326 ft | 138 kts | 354° |
| 2026-05-05 23:19 | 41.90844 | -85.21649 | 5198 ft | 137 kts | 355° |
| 2026-05-05 23:19 | 41.91794 | -85.21609 | 5071 ft | 136 kts | 355° |
| 2026-05-05 23:20 | 41.92727 | -85.21570 | 4943 ft | 134 kts | 355° |
| 2026-05-05 23:20 | 41.93656 | -85.21534 | 4814 ft | 133 kts | 355° |
| 2026-05-05 23:20 | 41.94580 | -85.21498 | 4690 ft | 132 kts | 356° |
| 2026-05-05 23:20 | 41.95498 | -85.21461 | 4558 ft | 132 kts | 355° |
| 2026-05-05 23:21 | 41.96416 | -85.21424 | 4425 ft | 132 kts | 355° |
| 2026-05-05 23:21 | 41.97333 | -85.21388 | 4296 ft | 132 kts | 356° |
| 2026-05-05 23:21 | 41.98250 | -85.21207 | 4147 ft | 137 kts | 13° |
| 2026-05-05 23:21 | 41.99067 | -85.20518 | 4011 ft | 143 kts | 32° |
| 2026-05-05 23:22 | 41.99855 | -85.19704 | 3878 ft | 142 kts | 30° |
| 2026-05-05 23:22 | 42.00660 | -85.18940 | 3747 ft | 141 kts | 28° |
| 2026-05-05 23:22 | 42.01473 | -85.18197 | 3623 ft | 142 kts | 28° |
| 2026-05-05 23:22 | 42.02286 | -85.17448 | 3493 ft | 141 kts | 29° |
| 2026-05-05 23:23 | 42.03101 | -85.16702 | 3366 ft | 142 kts | 28° |
| 2026-05-05 23:23 | 42.03916 | -85.15959 | 3243 ft | 142 kts | 29° |
| 2026-05-05 23:23 | 42.04733 | -85.15207 | 3113 ft | 142 kts | 30° |
| 2026-05-05 23:23 | 42.05547 | -85.14460 | 3024 ft | 139 kts | 29° |
| 2026-05-05 23:24 | 42.06337 | -85.13742 | 3018 ft | 134 kts | 29° |
| 2026-05-05 23:24 | 42.07100 | -85.13041 | 3018 ft | 132 kts | 29° |
| 2026-05-05 23:24 | 42.07852 | -85.12356 | 3016 ft | 130 kts | 28° |
| 2026-05-05 23:24 | 42.08599 | -85.11673 | 3012 ft | 130 kts | 29° |
| 2026-05-05 23:25 | 42.09341 | -85.10993 | 3016 ft | 129 kts | 28° |
| 2026-05-05 23:25 | 42.10085 | -85.10311 | 3020 ft | 130 kts | 30° |
| 2026-05-05 23:25 | 42.10834 | -85.09620 | 3016 ft | 131 kts | 30° |
| 2026-05-05 23:25 | 42.11585 | -85.08932 | 3021 ft | 131 kts | 29° |
| 2026-05-05 23:26 | 42.12336 | -85.08238 | 3013 ft | 130 kts | 29° |
| 2026-05-05 23:26 | 42.13090 | -85.07547 | 3018 ft | 132 kts | 28° |
| 2026-05-05 23:26 | 42.13841 | -85.06857 | 3022 ft | 133 kts | 28° |
| 2026-05-05 23:26 | 42.14603 | -85.06157 | 3019 ft | 133 kts | 29° |
| 2026-05-05 23:27 | 42.15368 | -85.05455 | 3023 ft | 134 kts | 29° |
| 2026-05-05 23:27 | 42.16136 | -85.04744 | 3017 ft | 133 kts | 29° |
| 2026-05-05 23:27 | 42.16894 | -85.04050 | 3021 ft | 131 kts | 29° |
| 2026-05-05 23:27 | 42.17653 | -85.03353 | 3016 ft | 131 kts | 28° |
| 2026-05-05 23:28 | 42.18480 | -85.02949 | 3012 ft | 125 kts | 2° |
| 2026-05-05 23:28 | 42.19308 | -85.03148 | 3007 ft | 120 kts | 333° |
| 2026-05-05 23:28 | 42.19942 | -85.03842 | 3019 ft | 118 kts | 314° |
| 2026-05-05 23:28 | 42.20601 | -85.04529 | 3016 ft | 121 kts | 322° |
| 2026-05-05 23:29 | 42.21266 | -85.05207 | 3015 ft | 118 kts | 321° |
| 2026-05-05 23:29 | 42.21917 | -85.05885 | 3014 ft | 118 kts | 322° |
| 2026-05-05 23:29 | 42.22511 | -85.06660 | 3016 ft | 120 kts | 310° |
| 2026-05-05 23:29 | 42.23043 | -85.07521 | 3012 ft | 120 kts | 300° |
| 2026-05-05 23:30 | 42.23230 | -85.08218 | 3026 ft | 118 kts | 287° |
| 2026-05-05 23:30 | 42.23477 | -85.09315 | 2921 ft | 125 kts | 290° |
| 2026-05-05 23:30 | 42.23746 | -85.10449 | 2826 ft | 128 kts | 289° |
| 2026-05-05 23:30 | 42.24067 | -85.11572 | 2720 ft | 126 kts | 300° |
| 2026-05-05 23:31 | 42.24540 | -85.12518 | 2613 ft | 118 kts | 304° |
| 2026-05-05 23:31 | 42.24984 | -85.13416 | 2503 ft | 113 kts | 304° |
| 2026-05-05 23:31 | 42.25416 | -85.14286 | 2392 ft | 108 kts | 304° |
| 2026-05-05 23:31 | 42.25807 | -85.15077 | 2321 ft | 95 kts | 304° |
| 2026-05-05 23:32 | 42.26164 | -85.15756 | 2320 ft | 85 kts | 304° |
| 2026-05-05 23:32 | 42.26491 | -85.16370 | 2323 ft | 80 kts | 303° |
| 2026-05-05 23:32 | 42.26841 | -85.17030 | 2333 ft | 92 kts | 306° |
| 2026-05-05 23:32 | 42.27222 | -85.17749 | 2332 ft | 93 kts | 305° |
| 2026-05-05 23:33 | 42.27576 | -85.18440 | 2308 ft | 88 kts | 304° |
| 2026-05-05 23:33 | 42.27936 | -85.19132 | 2112 ft | 87 kts | 308° |
| 2026-05-05 23:33 | 42.28272 | -85.19689 | 1861 ft | 70 kts | 308° |
| 2026-05-05 23:33 | 42.28546 | -85.20189 | 1667 ft | 67 kts | 303° |
| 2026-05-05 23:34 | 42.28844 | -85.20698 | 1569 ft | 72 kts | 305° |
| 2026-05-05 23:34 | 42.29145 | -85.21257 | 1465 ft | 74 kts | 303° |
| 2026-05-05 23:34 | 42.29454 | -85.21824 | 1358 ft | 75 kts | 304° |
| 2026-05-05 23:34 | 42.29763 | -85.22390 | 1255 ft | 74 kts | 303° |
| 2026-05-05 23:35 | 42.30064 | -85.22955 | 1151 ft | 74 kts | 304° |
| 2026-05-05 23:35 | 42.30357 | -85.23510 | 1060 ft | 70 kts | 304° |
| 2026-05-05 23:35 | 42.30647 | -85.24030 | 960 ft | 67 kts | 300° |
| 2026-05-05 23:35 | 42.30880 | -85.24471 | 935 ft | 46 kts | 307° |
| 2026-05-05 23:36 | 42.30977 | -85.24625 | 939 ft | 10 kts | 7° |
| 2026-05-05 23:36 | 42.31033 | -85.24563 | 940 ft | 12 kts | 55° |
| 2026-05-05 23:36 | 42.31079 | -85.24411 | 938 ft | 24 kts | 76° |
| 2026-05-05 23:36 | 42.31105 | -85.24278 | 936 ft | 13 kts | 75° |
| 2026-05-05 23:37 | 42.31130 | -85.24145 | 934 ft | 15 kts | 74° |
| 2026-05-05 23:37 | 42.31162 | -85.24059 | 932 ft | 7 kts | 8° |
| 2026-05-05 23:37 | 42.31228 | -85.24056 | 933 ft | 12 kts | 356° |
| 2026-05-05 23:37 | 42.31303 | -85.24041 | 932 ft | 10 kts | 61° |
| 2026-05-05 23:38 | 42.31320 | -85.23939 | 932 ft | 11 kts | 20° |
| 2026-05-05 23:38 | 42.31398 | -85.23932 | 930 ft | 8 kts | 4° |
| 2026-05-05 23:38 | 42.31413 | -85.23905 | 932 ft | 0 kts | 83° |